Weather at Esztergom Airfield

Public forecast

Using degrees Celsius for public forecast. Weather courtesy of forecast.io.

Closest aviation weather report (METAR) to Esztergom Airfield

Closest report is Budapest Liszt Ferenc International Airport, 29.1 nm (54.0 km) SE. Retrieved 2022/01/27 04:30 UTC (29 minutes ago):

LHBP 270430Z 30011KT 9999 BKN020 01/M02 Q1024 NOSIG

Closest aviation forecast (TAF) to Esztergom Airfield

Closest forecast is Budapest Liszt Ferenc International Airport, 29.1 nm (54.0 km) SE. Retrieved 2022-01-27 00:25 UTC (5 hours ago):

TAF LHBP 262315Z 2700/2800 28009KT CAVOK TEMPO 2700/2710 BKN020 BECMG 2714/2716 23007KT BECMG 2720/2722 30011KT TEMPO 2721/2724 7000 -RASN BKN020 BKN040